Danville, Kansas
Current Conditions -  °F | °C
As of 11:53 PM on Tuesday 21 Oct 2014 (Local Time) from KICT Reporting Station
Clear Clear  
Wind Chill: 66°   Ceiling: Unl
Heat Index: 66°   Visibility: 10mi
Dew Point: 60°   Wind: 10mph
Humidity: 81%   Direction: 140°SE
Pressure: 30.04"   Gusts: NA
Location:  37.29°N, 97.89°W
Report Text: KICT 220453Z 14009KT 10SM CLR 19/16 A3004 RMK AO2 SLP162 T01890156
Loading
Personal Weather Stations






























Interactive Weather Map
Tropical Storm Tracking
New forecast layout! Learn more

10-Day Weather Forecast

Advertisements
Track Severe Weather on mobile